sensor_id;sensor_type;location;lat;lon;timestamp;P1;durP1;ratioP1;P2;durP2;ratioP2
17482;SDS011;8858;52.308;20.994;2024-03-23T00:53:45;22.77;;;18.60;;
17482;SDS011;8858;52.308;20.994;2024-03-23T00:56:13;24.43;;;18.27;;
17482;SDS011;8858;52.308;20.994;2024-03-23T00:58:39;22.33;;;18.57;;
17482;SDS011;8858;52.308;20.994;2024-03-23T01:01:06;27.20;;;19.23;;
17482;SDS011;8858;52.308;20.994;2024-03-23T01:03:32;23.00;;;19.27;;
17482;SDS011;8858;52.308;20.994;2024-03-23T01:06:00;25.40;;;19.37;;
17482;SDS011;8858;52.308;20.994;2024-03-23T01:08:26;23.93;;;18.90;;
17482;SDS011;8858;52.308;20.994;2024-03-23T01:13:43;25.23;;;19.37;;
17482;SDS011;8858;52.308;20.994;2024-03-23T01:16:14;24.60;;;20.00;;
17482;SDS011;8858;52.308;20.994;2024-03-23T01:18:40;25.00;;;19.20;;
17482;SDS011;8858;52.308;20.994;2024-03-23T01:21:09;23.60;;;19.33;;
17482;SDS011;8858;52.308;20.994;2024-03-23T01:23:35;25.03;;;19.23;;
17482;SDS011;8858;52.308;20.994;2024-03-23T01:26:02;26.07;;;20.80;;
17482;SDS011;8858;52.308;20.994;2024-03-23T01:28:29;28.70;;;20.33;;
17482;SDS011;8858;52.308;20.994;2024-03-23T01:30:57;22.90;;;19.07;;
17482;SDS011;8858;52.308;20.994;2024-03-23T01:33:24;26.07;;;20.43;;
17482;SDS011;8858;52.308;20.994;2024-03-23T01:35:51;23.43;;;19.67;;
17482;SDS011;8858;52.308;20.994;2024-03-23T01:38:17;25.40;;;20.23;;
17482;SDS011;8858;52.308;20.994;2024-03-23T01:40:44;25.37;;;20.07;;
17482;SDS011;8858;52.308;20.994;2024-03-23T01:43:12;25.90;;;20.93;;
17482;SDS011;8858;52.308;20.994;2024-03-23T01:48:29;26.90;;;20.87;;
17482;SDS011;8858;52.308;20.994;2024-03-23T01:53:37;28.37;;;21.30;;
17482;SDS011;8858;52.308;20.994;2024-03-23T01:56:05;24.63;;;20.90;;
17482;SDS011;8858;52.308;20.994;2024-03-23T01:58:32;27.03;;;21.13;;
17482;SDS011;8858;52.308;20.994;2024-03-23T02:04:06;26.30;;;21.00;;
17482;SDS011;8858;52.308;20.994;2024-03-23T02:06:39;27.03;;;21.43;;
17482;SDS011;8858;52.308;20.994;2024-03-23T02:09:05;28.27;;;21.07;;
17482;SDS011;8858;52.308;20.994;2024-03-23T02:16:58;30.33;;;23.23;;
17482;SDS011;8858;52.308;20.994;2024-03-23T02:19:28;29.17;;;21.77;;
17482;SDS011;8858;52.308;20.994;2024-03-23T02:22:01;28.70;;;21.87;;
17482;SDS011;8858;52.308;20.994;2024-03-23T02:27:28;31.77;;;23.30;;
17482;SDS011;8858;52.308;20.994;2024-03-23T02:32:36;27.80;;;21.73;;
17482;SDS011;8858;52.308;20.994;2024-03-23T02:37:55;29.93;;;21.63;;
17482;SDS011;8858;52.308;20.994;2024-03-23T02:42:57;30.57;;;22.97;;
17482;SDS011;8858;52.308;20.994;2024-03-23T02:45:25;29.60;;;23.27;;
17482;SDS011;8858;52.308;20.994;2024-03-23T02:47:51;28.27;;;22.37;;
17482;SDS011;8858;52.308;20.994;2024-03-23T02:52:55;29.07;;;22.63;;
17482;SDS011;8858;52.308;20.994;2024-03-23T02:55:23;29.93;;;23.57;;
17482;SDS011;8858;52.308;20.994;2024-03-23T02:57:49;27.90;;;21.97;;
17482;SDS011;8858;52.308;20.994;2024-03-23T03:00:19;28.63;;;23.17;;
17482;SDS011;8858;52.308;20.994;2024-03-23T03:02:45;28.63;;;23.90;;
17482;SDS011;8858;52.308;20.994;2024-03-23T03:08:18;30.00;;;23.13;;
17482;SDS011;8858;52.308;20.994;2024-03-23T03:10:46;30.87;;;23.10;;
17482;SDS011;8858;52.308;20.994;2024-03-23T03:13:13;28.83;;;23.40;;
17482;SDS011;8858;52.308;20.994;2024-03-23T03:15:42;30.17;;;23.10;;
17482;SDS011;8858;52.308;20.994;2024-03-23T03:18:09;29.70;;;23.10;;
17482;SDS011;8858;52.308;20.994;2024-03-23T03:23:32;32.93;;;23.67;;
17482;SDS011;8858;52.308;20.994;2024-03-23T03:28:56;27.80;;;22.90;;
17482;SDS011;8858;52.308;20.994;2024-03-23T03:34:06;27.90;;;23.17;;
17482;SDS011;8858;52.308;20.994;2024-03-23T03:36:33;27.70;;;22.70;;
17482;SDS011;8858;52.308;20.994;2024-03-23T03:39:06;28.30;;;23.30;;
17482;SDS011;8858;52.308;20.994;2024-03-23T03:41:33;29.07;;;23.20;;
17482;SDS011;8858;52.308;20.994;2024-03-23T03:44:01;29.07;;;23.13;;
17482;SDS011;8858;52.308;20.994;2024-03-23T03:46:28;29.10;;;23.47;;
17482;SDS011;8858;52.308;20.994;2024-03-23T03:48:56;27.73;;;22.50;;
17482;SDS011;8858;52.308;20.994;2024-03-23T03:51:25;25.60;;;21.77;;
17482;SDS011;8858;52.308;20.994;2024-03-23T03:53:51;27.20;;;22.23;;
17482;SDS011;8858;52.308;20.994;2024-03-23T03:56:19;24.87;;;21.03;;
17482;SDS011;8858;52.308;20.994;2024-03-23T03:58:49;24.00;;;20.57;;
17482;SDS011;8858;52.308;20.994;2024-03-23T04:01:16;25.77;;;21.07;;
17482;SDS011;8858;52.308;20.994;2024-03-23T04:03:43;24.10;;;20.87;;
17482;SDS011;8858;52.308;20.994;2024-03-23T04:06:10;24.50;;;20.47;;
17482;SDS011;8858;52.308;20.994;2024-03-23T04:08:38;24.27;;;19.50;;
17482;SDS011;8858;52.308;20.994;2024-03-23T04:11:06;25.27;;;20.87;;
17482;SDS011;8858;52.308;20.994;2024-03-23T04:13:34;23.17;;;19.67;;
17482;SDS011;8858;52.308;20.994;2024-03-23T04:22:17;23.87;;;19.63;;
17482;SDS011;8858;52.308;20.994;2024-03-23T04:27:44;27.20;;;20.17;;
17482;SDS011;8858;52.308;20.994;2024-03-23T04:30:12;23.10;;;20.37;;
17482;SDS011;8858;52.308;20.994;2024-03-23T04:32:39;24.70;;;20.20;;
17482;SDS011;8858;52.308;20.994;2024-03-23T04:43:55;26.57;;;21.77;;
17482;SDS011;8858;52.308;20.994;2024-03-23T04:46:23;24.90;;;20.57;;
17482;SDS011;8858;52.308;20.994;2024-03-23T04:48:50;25.10;;;21.60;;
17482;SDS011;8858;52.308;20.994;2024-03-23T04:51:22;25.17;;;22.10;;
17482;SDS011;8858;52.308;20.994;2024-03-23T04:53:50;25.23;;;20.90;;
17482;SDS011;8858;52.308;20.994;2024-03-23T04:56:18;26.00;;;21.33;;
17482;SDS011;8858;52.308;20.994;2024-03-23T04:58:45;26.33;;;21.20;;
17482;SDS011;8858;52.308;20.994;2024-03-23T05:07:15;23.60;;;20.83;;
17482;SDS011;8858;52.308;20.994;2024-03-23T05:12:34;25.60;;;21.23;;
17482;SDS011;8858;52.308;20.994;2024-03-23T05:15:05;24.63;;;20.67;;
17482;SDS011;8858;52.308;20.994;2024-03-23T05:17:33;25.33;;;20.77;;
17482;SDS011;8858;52.308;20.994;2024-03-23T05:22:58;24.43;;;20.23;;
17482;SDS011;8858;52.308;20.994;2024-03-23T05:25:27;24.13;;;20.40;;
17482;SDS011;8858;52.308;20.994;2024-03-23T05:27:53;26.37;;;21.60;;
17482;SDS011;8858;52.308;20.994;2024-03-23T05:30:20;32.73;;;26.87;;
17482;SDS011;8858;52.308;20.994;2024-03-23T05:32:47;28.63;;;23.80;;
17482;SDS011;8858;52.308;20.994;2024-03-23T05:35:15;29.40;;;23.90;;
17482;SDS011;8858;52.308;20.994;2024-03-23T05:37:41;27.67;;;22.50;;
17482;SDS011;8858;52.308;20.994;2024-03-23T05:40:11;29.03;;;23.97;;
17482;SDS011;8858;52.308;20.994;2024-03-23T05:42:39;28.20;;;23.40;;
17482;SDS011;8858;52.308;20.994;2024-03-23T05:48:01;30.63;;;24.13;;
17482;SDS011;8858;52.308;20.994;2024-03-23T05:50:29;30.93;;;25.33;;
17482;SDS011;8858;52.308;20.994;2024-03-23T05:52:55;30.73;;;24.13;;
17482;SDS011;8858;52.308;20.994;2024-03-23T05:55:26;30.40;;;24.57;;
17482;SDS011;8858;52.308;20.994;2024-03-23T05:57:54;29.47;;;25.03;;
17482;SDS011;8858;52.308;20.994;2024-03-23T06:02:58;32.03;;;26.17;;
17482;SDS011;8858;52.308;20.994;2024-03-23T06:05:25;30.27;;;25.50;;
17482;SDS011;8858;52.308;20.994;2024-03-23T06:07:53;32.57;;;25.93;;
17482;SDS011;8858;52.308;20.994;2024-03-23T06:13:18;32.67;;;26.47;;
17482;SDS011;8858;52.308;20.994;2024-03-23T06:15:46;33.30;;;26.60;;
17482;SDS011;8858;52.308;20.994;2024-03-23T06:18:15;35.30;;;25.90;;
17482;SDS011;8858;52.308;20.994;2024-03-23T06:20:42;32.63;;;26.67;;
17482;SDS011;8858;52.308;20.994;2024-03-23T06:23:10;35.47;;;28.27;;
17482;SDS011;8858;52.308;20.994;2024-03-23T06:25:38;32.87;;;26.47;;
17482;SDS011;8858;52.308;20.994;2024-03-23T06:28:04;33.30;;;26.93;;
17482;SDS011;8858;52.308;20.994;2024-03-23T06:30:34;32.87;;;26.57;;
17482;SDS011;8858;52.308;20.994;2024-03-23T06:33:00;32.30;;;26.80;;
17482;SDS011;8858;52.308;20.994;2024-03-23T06:35:28;35.83;;;26.93;;
17482;SDS011;8858;52.308;20.994;2024-03-23T06:37:57;33.63;;;26.83;;
17482;SDS011;8858;52.308;20.994;2024-03-23T06:43:27;31.43;;;25.83;;
17482;SDS011;8858;52.308;20.994;2024-03-23T06:51:44;30.33;;;24.90;;
17482;SDS011;8858;52.308;20.994;2024-03-23T06:54:12;32.23;;;24.93;;
17482;SDS011;8858;52.308;20.994;2024-03-23T06:56:38;32.27;;;26.67;;
17482;SDS011;8858;52.308;20.994;2024-03-23T07:02:04;34.03;;;26.57;;
17482;SDS011;8858;52.308;20.994;2024-03-23T07:04:33;32.60;;;24.93;;
17482;SDS011;8858;52.308;20.994;2024-03-23T07:07:01;31.63;;;24.77;;
17482;SDS011;8858;52.308;20.994;2024-03-23T07:09:29;35.27;;;29.00;;
17482;SDS011;8858;52.308;20.994;2024-03-23T07:11:56;35.33;;;27.67;;
17482;SDS011;8858;52.308;20.994;2024-03-23T07:17:08;31.87;;;24.70;;
17482;SDS011;8858;52.308;20.994;2024-03-23T07:19:35;31.30;;;24.37;;
17482;SDS011;8858;52.308;20.994;2024-03-23T07:22:03;32.10;;;26.00;;
17482;SDS011;8858;52.308;20.994;2024-03-23T07:24:31;30.83;;;24.73;;
17482;SDS011;8858;52.308;20.994;2024-03-23T07:26:58;32.93;;;25.23;;
17482;SDS011;8858;52.308;20.994;2024-03-23T07:29:27;32.97;;;25.13;;
17482;SDS011;8858;52.308;20.994;2024-03-23T07:31:53;32.17;;;26.10;;
17482;SDS011;8858;52.308;20.994;2024-03-23T07:34:24;30.93;;;24.83;;
17482;SDS011;8858;52.308;20.994;2024-03-23T07:36:50;31.93;;;24.47;;
17482;SDS011;8858;52.308;20.994;2024-03-23T07:39:18;33.93;;;24.87;;
17482;SDS011;8858;52.308;20.994;2024-03-23T07:41:45;30.23;;;23.63;;
17482;SDS011;8858;52.308;20.994;2024-03-23T07:47:01;26.03;;;21.17;;
17482;SDS011;8858;52.308;20.994;2024-03-23T07:49:29;27.60;;;21.67;;
17482;SDS011;8858;52.308;20.994;2024-03-23T07:51:56;24.97;;;21.20;;
17482;SDS011;8858;52.308;20.994;2024-03-23T07:56:56;22.83;;;19.40;;
17482;SDS011;8858;52.308;20.994;2024-03-23T07:59:25;22.20;;;18.30;;
17482;SDS011;8858;52.308;20.994;2024-03-23T08:01:51;24.77;;;19.00;;
17482;SDS011;8858;52.308;20.994;2024-03-23T08:04:19;23.13;;;18.97;;
17482;SDS011;8858;52.308;20.994;2024-03-23T08:06:46;25.17;;;19.40;;
17482;SDS011;8858;52.308;20.994;2024-03-23T08:09:13;22.13;;;18.77;;
17482;SDS011;8858;52.308;20.994;2024-03-23T08:11:39;23.97;;;19.20;;
17482;SDS011;8858;52.308;20.994;2024-03-23T08:14:11;25.23;;;19.03;;
17482;SDS011;8858;52.308;20.994;2024-03-23T08:16:37;22.87;;;19.50;;
17482;SDS011;8858;52.308;20.994;2024-03-23T08:19:04;24.70;;;18.73;;
17482;SDS011;8858;52.308;20.994;2024-03-23T08:21:31;24.77;;;18.47;;
17482;SDS011;8858;52.308;20.994;2024-03-23T08:23:58;26.47;;;18.63;;
17482;SDS011;8858;52.308;20.994;2024-03-23T08:26:25;22.27;;;18.07;;
17482;SDS011;8858;52.308;20.994;2024-03-23T08:31:49;23.33;;;18.30;;
17482;SDS011;8858;52.308;20.994;2024-03-23T08:34:17;24.93;;;19.70;;
17482;SDS011;8858;52.308;20.994;2024-03-23T08:36:49;25.67;;;18.33;;
17482;SDS011;8858;52.308;20.994;2024-03-23T08:39:17;26.00;;;18.80;;
17482;SDS011;8858;52.308;20.994;2024-03-23T08:41:44;24.77;;;18.57;;
17482;SDS011;8858;52.308;20.994;2024-03-23T08:46:56;24.27;;;18.73;;
17482;SDS011;8858;52.308;20.994;2024-03-23T08:49:24;22.07;;;18.60;;
17482;SDS011;8858;52.308;20.994;2024-03-23T08:51:50;23.33;;;18.67;;
17482;SDS011;8858;52.308;20.994;2024-03-23T08:57:25;23.33;;;18.50;;
17482;SDS011;8858;52.308;20.994;2024-03-23T08:59:52;22.67;;;18.27;;
17482;SDS011;8858;52.308;20.994;2024-03-23T09:02:20;25.03;;;18.73;;
17482;SDS011;8858;52.308;20.994;2024-03-23T09:04:47;24.10;;;17.93;;
17482;SDS011;8858;52.308;20.994;2024-03-23T09:07:13;20.80;;;16.60;;
17482;SDS011;8858;52.308;20.994;2024-03-23T09:09:41;21.67;;;17.17;;
17482;SDS011;8858;52.308;20.994;2024-03-23T09:12:08;21.70;;;17.07;;
17482;SDS011;8858;52.308;20.994;2024-03-23T09:17:24;19.37;;;16.97;;
17482;SDS011;8858;52.308;20.994;2024-03-23T09:19:51;21.63;;;17.43;;
17482;SDS011;8858;52.308;20.994;2024-03-23T09:22:18;19.77;;;16.30;;
17482;SDS011;8858;52.308;20.994;2024-03-23T09:24:45;21.70;;;16.23;;
17482;SDS011;8858;52.308;20.994;2024-03-23T09:27:11;19.00;;;15.30;;
17482;SDS011;8858;52.308;20.994;2024-03-23T09:29:38;20.63;;;16.17;;
17482;SDS011;8858;52.308;20.994;2024-03-23T09:32:09;18.87;;;16.17;;
17482;SDS011;8858;52.308;20.994;2024-03-23T09:34:37;18.97;;;15.30;;
17482;SDS011;8858;52.308;20.994;2024-03-23T09:37:04;19.40;;;14.83;;
17482;SDS011;8858;52.308;20.994;2024-03-23T09:42:19;20.87;;;14.80;;
17482;SDS011;8858;52.308;20.994;2024-03-23T09:44:47;17.37;;;14.57;;
17482;SDS011;8858;52.308;20.994;2024-03-23T09:47:16;16.63;;;14.87;;
17482;SDS011;8858;52.308;20.994;2024-03-23T09:49:45;17.33;;;13.73;;
17482;SDS011;8858;52.308;20.994;2024-03-23T09:52:12;16.47;;;13.83;;
17482;SDS011;8858;52.308;20.994;2024-03-23T09:57:35;15.97;;;14.27;;
17482;SDS011;8858;52.308;20.994;2024-03-23T10:00:03;16.83;;;13.63;;
17482;SDS011;8858;52.308;20.994;2024-03-23T10:02:34;17.83;;;13.53;;
17482;SDS011;8858;52.308;20.994;2024-03-23T10:05:03;16.23;;;13.33;;
17482;SDS011;8858;52.308;20.994;2024-03-23T10:07:30;17.67;;;12.63;;
17482;SDS011;8858;52.308;20.994;2024-03-23T10:09:57;16.90;;;12.80;;
17482;SDS011;8858;52.308;20.994;2024-03-23T10:12:23;16.37;;;12.77;;
17482;SDS011;8858;52.308;20.994;2024-03-23T10:14:51;13.80;;;11.90;;
17482;SDS011;8858;52.308;20.994;2024-03-23T10:17:19;13.73;;;12.20;;
17482;SDS011;8858;52.308;20.994;2024-03-23T10:23:01;18.37;;;12.90;;
17482;SDS011;8858;52.308;20.994;2024-03-23T10:25:28;16.83;;;14.37;;
17482;SDS011;8858;52.308;20.994;2024-03-23T10:30:58;13.03;;;11.37;;
17482;SDS011;8858;52.308;20.994;2024-03-23T10:36:06;13.20;;;10.57;;
17482;SDS011;8858;52.308;20.994;2024-03-23T10:38:36;11.80;;;10.60;;
17482;SDS011;8858;52.308;20.994;2024-03-23T10:41:03;18.87;;;14.30;;
17482;SDS011;8858;52.308;20.994;2024-03-23T10:46:22;12.97;;;11.53;;
17482;SDS011;8858;52.308;20.994;2024-03-23T10:51:48;13.52;;;10.98;;
17482;SDS011;8858;52.308;20.994;2024-03-23T10:54:20;16.47;;;10.77;;
17482;SDS011;8858;52.308;20.994;2024-03-23T10:56:47;11.13;;;9.75;;
17482;SDS011;8858;52.308;20.994;2024-03-23T11:02:18;15.70;;;12.30;;
17482;SDS011;8858;52.308;20.994;2024-03-23T11:10:36;11.35;;;10.15;;
17482;SDS011;8858;52.308;20.994;2024-03-23T11:15:50;14.15;;;10.43;;
17482;SDS011;8858;52.308;20.994;2024-03-23T11:18:20;10.70;;;9.65;;
17482;SDS011;8858;52.308;20.994;2024-03-23T11:20:47;11.20;;;9.18;;
17482;SDS011;8858;52.308;20.994;2024-03-23T11:25:56;10.55;;;8.43;;
17482;SDS011;8858;52.308;20.994;2024-03-23T11:28:23;12.25;;;8.80;;
17482;SDS011;8858;52.308;20.994;2024-03-23T11:30:50;10.50;;;9.18;;
17482;SDS011;8858;52.308;20.994;2024-03-23T11:36:07;10.55;;;7.80;;
17482;SDS011;8858;52.308;20.994;2024-03-23T11:41:38;11.40;;;8.18;;
17482;SDS011;8858;52.308;20.994;2024-03-23T11:44:16;8.63;;;7.70;;
17482;SDS011;8858;52.308;20.994;2024-03-23T11:46:44;8.63;;;7.00;;
17482;SDS011;8858;52.308;20.994;2024-03-23T11:51:58;9.13;;;7.47;;
17482;SDS011;8858;52.308;20.994;2024-03-23T11:54:28;9.48;;;6.95;;
17482;SDS011;8858;52.308;20.994;2024-03-23T11:56:57;8.15;;;7.35;;
17482;SDS011;8858;52.308;20.994;2024-03-23T11:59:32;9.02;;;6.68;;
17482;SDS011;8858;52.308;20.994;2024-03-23T12:02:00;8.18;;;6.22;;
17482;SDS011;8858;52.308;20.994;2024-03-23T12:04:32;9.23;;;6.60;;
17482;SDS011;8858;52.308;20.994;2024-03-23T12:07:11;7.55;;;5.82;;
17482;SDS011;8858;52.308;20.994;2024-03-23T12:09:39;8.45;;;6.13;;
17482;SDS011;8858;52.308;20.994;2024-03-23T12:12:08;8.43;;;6.03;;
17482;SDS011;8858;52.308;20.994;2024-03-23T12:20:10;7.50;;;5.78;;
17482;SDS011;8858;52.308;20.994;2024-03-23T12:25:32;6.38;;;5.72;;
17482;SDS011;8858;52.308;20.994;2024-03-23T12:28:02;6.13;;;5.53;;
17482;SDS011;8858;52.308;20.994;2024-03-23T12:30:32;6.85;;;6.07;;
17482;SDS011;8858;52.308;20.994;2024-03-23T12:35:55;8.05;;;6.07;;
17482;SDS011;8858;52.308;20.994;2024-03-23T12:38:23;7.75;;;6.45;;
17482;SDS011;8858;52.308;20.994;2024-03-23T12:40:49;7.50;;;5.97;;
17482;SDS011;8858;52.308;20.994;2024-03-23T12:43:18;6.75;;;5.93;;
17482;SDS011;8858;52.308;20.994;2024-03-23T12:45:48;8.98;;;6.00;;
17482;SDS011;8858;52.308;20.994;2024-03-23T12:51:00;8.73;;;6.28;;
17482;SDS011;8858;52.308;20.994;2024-03-23T12:53:28;8.40;;;7.35;;
17482;SDS011;8858;52.308;20.994;2024-03-23T12:55:55;7.43;;;6.65;;
17482;SDS011;8858;52.308;20.994;2024-03-23T12:58:24;9.45;;;6.82;;
17482;SDS011;8858;52.308;20.994;2024-03-23T13:00:51;7.38;;;6.50;;
17482;SDS011;8858;52.308;20.994;2024-03-23T13:03:18;6.88;;;6.15;;
17482;SDS011;8858;52.308;20.994;2024-03-23T13:05:46;11.63;;;6.90;;
17482;SDS011;8858;52.308;20.994;2024-03-23T13:11:06;8.05;;;6.45;;
17482;SDS011;8858;52.308;20.994;2024-03-23T13:13:35;7.03;;;6.05;;
17482;SDS011;8858;52.308;20.994;2024-03-23T13:16:02;7.40;;;6.70;;
17482;SDS011;8858;52.308;20.994;2024-03-23T13:18:29;7.82;;;7.13;;
17482;SDS011;8858;52.308;20.994;2024-03-23T13:20:56;7.13;;;6.40;;
17482;SDS011;8858;52.308;20.994;2024-03-23T13:23:24;9.77;;;6.63;;
17482;SDS011;8858;52.308;20.994;2024-03-23T13:25:50;10.63;;;6.82;;
17482;SDS011;8858;52.308;20.994;2024-03-23T13:28:19;10.73;;;7.47;;
17482;SDS011;8858;52.308;20.994;2024-03-23T13:30:51;7.80;;;6.95;;
17482;SDS011;8858;52.308;20.994;2024-03-23T13:33:19;9.90;;;7.22;;
17482;SDS011;8858;52.308;20.994;2024-03-23T13:35:49;7.57;;;6.88;;
17482;SDS011;8858;52.308;20.994;2024-03-23T13:38:17;7.50;;;6.68;;
17482;SDS011;8858;52.308;20.994;2024-03-23T13:40:52;9.25;;;6.95;;
17482;SDS011;8858;52.308;20.994;2024-03-23T13:46:10;10.48;;;7.22;;
17482;SDS011;8858;52.308;20.994;2024-03-23T13:51:26;9.02;;;7.65;;
17482;SDS011;8858;52.308;20.994;2024-03-23T13:53:54;10.05;;;7.07;;
17482;SDS011;8858;52.308;20.994;2024-03-23T13:56:22;9.77;;;7.07;;
17482;SDS011;8858;52.308;20.994;2024-03-23T13:58:49;7.60;;;6.80;;
17482;SDS011;8858;52.308;20.994;2024-03-23T14:01:17;7.72;;;6.85;;
17482;SDS011;8858;52.308;20.994;2024-03-23T14:03:45;8.32;;;7.30;;
17482;SDS011;8858;52.308;20.994;2024-03-23T14:06:11;9.38;;;7.22;;
17482;SDS011;8858;52.308;20.994;2024-03-23T14:08:42;8.05;;;6.95;;
17482;SDS011;8858;52.308;20.994;2024-03-23T14:11:09;8.70;;;7.28;;
17482;SDS011;8858;52.308;20.994;2024-03-23T14:16:08;9.23;;;6.90;;
17482;SDS011;8858;52.308;20.994;2024-03-23T14:18:37;10.43;;;7.03;;
17482;SDS011;8858;52.308;20.994;2024-03-23T14:21:04;7.97;;;7.15;;
17482;SDS011;8858;52.308;20.994;2024-03-23T14:23:33;9.13;;;7.28;;
17482;SDS011;8858;52.308;20.994;2024-03-23T14:25:59;9.55;;;7.65;;
17482;SDS011;8858;52.308;20.994;2024-03-23T14:28:28;8.15;;;7.22;;
17482;SDS011;8858;52.308;20.994;2024-03-23T14:30:55;8.50;;;7.70;;
17482;SDS011;8858;52.308;20.994;2024-03-23T14:33:27;8.07;;;7.28;;
17482;SDS011;8858;52.308;20.994;2024-03-23T14:35:55;9.43;;;8.32;;
17482;SDS011;8858;52.308;20.994;2024-03-23T14:38:24;9.25;;;8.02;;
17482;SDS011;8858;52.308;20.994;2024-03-23T14:40:51;9.93;;;8.90;;
17482;SDS011;8858;52.308;20.994;2024-03-23T14:43:19;10.35;;;8.13;;
17482;SDS011;8858;52.308;20.994;2024-03-23T14:51:39;11.05;;;7.78;;
17482;SDS011;8858;52.308;20.994;2024-03-23T15:00:11;9.95;;;8.63;;
17482;SDS011;8858;52.308;20.994;2024-03-23T15:02:39;10.83;;;9.03;;
17482;SDS011;8858;52.308;20.994;2024-03-23T15:05:08;10.05;;;8.95;;
17482;SDS011;8858;52.308;20.994;2024-03-23T15:07:37;10.25;;;9.25;;
17482;SDS011;8858;52.308;20.994;2024-03-23T15:10:07;11.70;;;9.07;;
17482;SDS011;8858;52.308;20.994;2024-03-23T15:12:35;14.60;;;10.77;;
17482;SDS011;8858;52.308;20.994;2024-03-23T15:15:02;29.17;;;14.03;;
17482;SDS011;8858;52.308;20.994;2024-03-23T15:17:29;17.57;;;15.07;;
17482;SDS011;8858;52.308;20.994;2024-03-23T15:20:00;18.67;;;15.60;;
17482;SDS011;8858;52.308;20.994;2024-03-23T15:25:19;20.90;;;15.70;;
17482;SDS011;8858;52.308;20.994;2024-03-23T15:27:52;26.00;;;16.87;;
17482;SDS011;8858;52.308;20.994;2024-03-23T15:30:20;21.97;;;17.20;;
17482;SDS011;8858;52.308;20.994;2024-03-23T15:35:38;22.13;;;17.90;;
17482;SDS011;8858;52.308;20.994;2024-03-23T15:38:08;21.97;;;16.90;;
17482;SDS011;8858;52.308;20.994;2024-03-23T15:40:36;23.03;;;17.17;;
17482;SDS011;8858;52.308;20.994;2024-03-23T15:43:07;21.00;;;17.63;;
17482;SDS011;8858;52.308;20.994;2024-03-23T15:45:33;20.00;;;16.07;;
17482;SDS011;8858;52.308;20.994;2024-03-23T15:48:01;20.77;;;15.83;;
17482;SDS011;8858;52.308;20.994;2024-03-23T15:50:27;15.53;;;13.43;;
17482;SDS011;8858;52.308;20.994;2024-03-23T15:52:54;21.80;;;13.93;;
17482;SDS011;8858;52.308;20.994;2024-03-23T15:55:21;17.77;;;14.30;;
17482;SDS011;8858;52.308;20.994;2024-03-23T15:57:50;14.77;;;13.30;;
17482;SDS011;8858;52.308;20.994;2024-03-23T16:00:17;14.10;;;12.60;;
17482;SDS011;8858;52.308;20.994;2024-03-23T16:05:39;13.60;;;11.97;;
17482;SDS011;8858;52.308;20.994;2024-03-23T16:08:07;15.37;;;12.87;;
17482;SDS011;8858;52.308;20.994;2024-03-23T16:10:34;17.33;;;13.70;;
17482;SDS011;8858;52.308;20.994;2024-03-23T16:13:03;16.53;;;12.67;;
17482;SDS011;8858;52.308;20.994;2024-03-23T16:15:30;14.67;;;13.17;;
17482;SDS011;8858;52.308;20.994;2024-03-23T16:17:57;14.27;;;12.77;;
17482;SDS011;8858;52.308;20.994;2024-03-23T16:20:23;16.90;;;14.10;;
17482;SDS011;8858;52.308;20.994;2024-03-23T16:22:52;17.33;;;13.73;;
17482;SDS011;8858;52.308;20.994;2024-03-23T16:25:18;16.07;;;14.00;;
17482;SDS011;8858;52.308;20.994;2024-03-23T16:27:47;22.10;;;15.23;;
17482;SDS011;8858;52.308;20.994;2024-03-23T16:30:15;17.73;;;14.60;;
17482;SDS011;8858;52.308;20.994;2024-03-23T16:32:43;16.93;;;13.73;;
17482;SDS011;8858;52.308;20.994;2024-03-23T16:35:13;16.57;;;13.97;;
17482;SDS011;8858;52.308;20.994;2024-03-23T16:40:38;19.23;;;15.57;;
17482;SDS011;8858;52.308;20.994;2024-03-23T16:43:06;15.83;;;14.23;;
17482;SDS011;8858;52.308;20.994;2024-03-23T16:45:34;17.73;;;14.97;;
17482;SDS011;8858;52.308;20.994;2024-03-23T16:48:01;20.47;;;17.03;;
17482;SDS011;8858;52.308;20.994;2024-03-23T16:50:29;17.33;;;15.50;;
17482;SDS011;8858;52.308;20.994;2024-03-23T16:53:01;15.97;;;14.37;;
17482;SDS011;8858;52.308;20.994;2024-03-23T16:55:27;17.77;;;14.53;;
17482;SDS011;8858;52.308;20.994;2024-03-23T16:57:55;16.57;;;14.87;;
17482;SDS011;8858;52.308;20.994;2024-03-23T17:00:21;17.27;;;14.70;;
17482;SDS011;8858;52.308;20.994;2024-03-23T17:08:43;16.00;;;14.30;;
17482;SDS011;8858;52.308;20.994;2024-03-23T17:14:06;15.20;;;13.70;;
17482;SDS011;8858;52.308;20.994;2024-03-23T17:16:34;13.83;;;12.33;;
17482;SDS011;8858;52.308;20.994;2024-03-23T17:19:02;13.60;;;12.20;;
17482;SDS011;8858;52.308;20.994;2024-03-23T17:24:21;15.17;;;11.57;;
17482;SDS011;8858;52.308;20.994;2024-03-23T17:26:48;14.63;;;11.83;;
17482;SDS011;8858;52.308;20.994;2024-03-23T17:29:15;13.00;;;11.03;;
17482;SDS011;8858;52.308;20.994;2024-03-23T17:31:45;14.90;;;10.93;;
17482;SDS011;8858;52.308;20.994;2024-03-23T17:34:12;11.60;;;10.27;;
17482;SDS011;8858;52.308;20.994;2024-03-23T17:39:35;11.83;;;10.07;;
17482;SDS011;8858;52.308;20.994;2024-03-23T17:42:06;10.40;;;9.30;;
17482;SDS011;8858;52.308;20.994;2024-03-23T17:44:33;15.07;;;11.83;;
17482;SDS011;8858;52.308;20.994;2024-03-23T17:49:47;10.77;;;9.67;;
17482;SDS011;8858;52.308;20.994;2024-03-23T17:52:14;10.83;;;9.73;;
17482;SDS011;8858;52.308;20.994;2024-03-23T17:54:42;10.80;;;9.70;;
17482;SDS011;8858;52.308;20.994;2024-03-23T18:00:06;10.10;;;9.10;;
17482;SDS011;8858;52.308;20.994;2024-03-23T18:02:36;10.90;;;9.80;;
17482;SDS011;8858;52.308;20.994;2024-03-23T18:05:03;11.87;;;10.27;;
17482;SDS011;8858;52.308;20.994;2024-03-23T18:07:31;13.63;;;10.47;;
17482;SDS011;8858;52.308;20.994;2024-03-23T18:09:59;11.50;;;10.17;;
17482;SDS011;8858;52.308;20.994;2024-03-23T18:12:26;11.70;;;10.60;;
17482;SDS011;8858;52.308;20.994;2024-03-23T18:14:57;12.13;;;9.97;;
17482;SDS011;8858;52.308;20.994;2024-03-23T18:17:25;13.73;;;11.70;;
17482;SDS011;8858;52.308;20.994;2024-03-23T18:19:53;12.60;;;11.40;;
17482;SDS011;8858;52.308;20.994;2024-03-23T18:22:21;12.00;;;9.70;;
17482;SDS011;8858;52.308;20.994;2024-03-23T18:24:47;12.17;;;10.00;;
17482;SDS011;8858;52.308;20.994;2024-03-23T18:30:12;12.13;;;10.20;;
17482;SDS011;8858;52.308;20.994;2024-03-23T18:32:41;10.53;;;9.07;;
17482;SDS011;8858;52.308;20.994;2024-03-23T18:35:07;6.10;;;5.13;;
17482;SDS011;8858;52.308;20.994;2024-03-23T18:40:32;4.53;;;3.70;;
17482;SDS011;8858;52.308;20.994;2024-03-23T18:43:00;4.33;;;3.53;;
17482;SDS011;8858;52.308;20.994;2024-03-23T18:45:27;3.70;;;3.40;;
17482;SDS011;8858;52.308;20.994;2024-03-23T18:47:57;3.33;;;3.03;;
17482;SDS011;8858;52.308;20.994;2024-03-23T18:50:24;3.40;;;3.10;;
17482;SDS011;8858;52.308;20.994;2024-03-23T18:52:53;4.73;;;3.23;;
17482;SDS011;8858;52.308;20.994;2024-03-23T18:55:19;3.43;;;2.97;;
17482;SDS011;8858;52.308;20.994;2024-03-23T18:57:47;4.57;;;3.27;;
17482;SDS011;8858;52.308;20.994;2024-03-23T19:00:13;3.50;;;2.63;;
17482;SDS011;8858;52.308;20.994;2024-03-23T19:02:42;2.87;;;2.57;;
17482;SDS011;8858;52.308;20.994;2024-03-23T19:05:09;2.27;;;2.00;;
17482;SDS011;8858;52.308;20.994;2024-03-23T19:07:36;3.13;;;2.07;;
17482;SDS011;8858;52.308;20.994;2024-03-23T19:10:05;1.60;;;1.50;;
17482;SDS011;8858;52.308;20.994;2024-03-23T19:18:26;1.60;;;1.50;;
17482;SDS011;8858;52.308;20.994;2024-03-23T19:23:46;1.00;;;0.97;;